PWSweather.com
Personal Weather Stations
Station Observations
WAIROAHB
Wairoa, Northern Hawkes Bay -NZ 4108

WairoaNorthern Hawkes Bay -NZ 4108

Lat: -39.04516934, Lon: 177.4263989

Elevation: 156

Station Type: WS3083

http://wairoa.net/weather/index.htm

Latest ConditionsUpdated 6:50:03 PM GMT+12:12 Sunday, Jul 23, 2017
Currently Today's Max Today's Min Today's Average
Temperature 46.9°F8.3°C 58.1°F14.5°C 46.6°F8.1°C 51.9°F11.1°C
Dew Point 43.9°F6.6°C 47.3°F8.5°C 41.7°F5.4°C 44.1°F6.7°C
Winds 0.7 mph NW1.1 kmh NW 18.3 mph SW29.5 kmh SW - 5.6 mph 9.0 kmh
Wind Gusts 3.1 mph5.0 kmh 25.9 mph41.7 kmh - -
Humidity 89% 89% 61% 75%
Pressure 29.69 in1005.4 mb 29.69 in1005.4 mb 29.45 in997.3 mb -
Precipitation - 0.01 in0.3 mm - -
Hour Temp Dew Point Humidity Winds Wind Gusts Pressure Precip Precip Rate Daily Precip Total
06:50 PM 46.9°F8.3°C 43.9°F6.6°C 89% 0.7 mph NW1.1 kmh NW 3.1 mph5.0 kmh 29.69 in1005.4 mb 0.00 in0.0 mm 0.00 in0.0 mm 0.01 in0.3 mm
06:40 PM 47.5°F8.6°C 44.1°F6.7°C 88% 1.6 mph NW2.6 kmh NW 3.1 mph5.0 kmh 29.69 in1005.4 mb 0.00 in0.0 mm 0.00 in0.0 mm 0.01 in0.3 mm
06:30 PM 48.2°F9.0°C 44.2°F6.8°C 86% 1.6 mph NNW2.6 kmh NNW 2.2 mph3.5 kmh 29.68 in1005.1 mb 0.00 in0.0 mm 0.00 in0.0 mm 0.01 in0.3 mm
06:20 PM 48.9°F9.4°C 44.6°F7.0°C 85% 1.6 mph NNE2.6 kmh NNE 1.6 mph2.6 kmh 29.69 in1005.4 mb 0.00 in0.0 mm 0.00 in0.0 mm 0.01 in0.3 mm
06:10 PM 49.3°F9.6°C 44.3°F6.8°C 83% 0.7 mph NE1.1 kmh NE 1.6 mph2.6 kmh 29.68 in1005.1 mb 0.00 in0.0 mm 0.00 in0.0 mm 0.01 in0.3 mm
06:00 PM 49.8°F9.9°C 43.9°F6.6°C 80% Calm Calm -- 29.68 in1005.1 mb 0.00 in0.0 mm 0.00 in0.0 mm 0.01 in0.3 mm
05:50 PM 50.2°F10.1°C 42.9°F6.1°C 76% Calm Calm -- 29.68 in1005.1 mb 0.00 in0.0 mm 0.00 in0.0 mm 0.01 in0.3 mm
05:40 PM 50.7°F10.4°C 43.1°F6.2°C 75% Calm Calm -- 29.68 in1005.1 mb 0.00 in0.0 mm 0.00 in0.0 mm 0.01 in0.3 mm
05:30 PM 51.4°F10.8°C 43.8°F6.6°C 75% Calm Calm -- 29.68 in1005.1 mb 0.00 in0.0 mm 0.00 in0.0 mm 0.01 in0.3 mm
05:20 PM 52.0°F11.1°C 43.6°F6.4°C 73% Calm Calm -- 29.68 in1005.1 mb 0.00 in0.0 mm 0.00 in0.0 mm 0.01 in0.3 mm
05:10 PM 52.3°F11.3°C 43.6°F6.4°C 72% Calm Calm 0.7 mph1.1 kmh 29.67 in1004.7 mb 0.00 in0.0 mm 0.00 in0.0 mm 0.01 in0.3 mm
05:00 PM 52.9°F11.6°C 44.1°F6.7°C 72% Calm Calm 2.2 mph3.5 kmh 29.68 in1005.1 mb 0.00 in0.0 mm 0.00 in0.0 mm 0.01 in0.3 mm
04:50 PM 53.2°F11.8°C 44.1°F6.7°C 71% 0.7 mph S1.1 kmh S 3.8 mph6.1 kmh 29.68 in1005.1 mb 0.00 in0.0 mm 0.00 in0.0 mm 0.01 in0.3 mm
04:40 PM 53.8°F12.1°C 44.2°F6.8°C 70% 1.6 mph S2.6 kmh S 4.5 mph7.2 kmh 29.67 in1004.7 mb 0.00 in0.0 mm 0.00 in0.0 mm 0.01 in0.3 mm
04:30 PM 54.1°F12.3°C 44.2°F6.8°C 69% 3.1 mph S5.0 kmh S 4.5 mph7.2 kmh 29.67 in1004.7 mb 0.00 in0.0 mm 0.00 in0.0 mm 0.01 in0.3 mm
04:20 PM 54.0°F12.2°C 44.0°F6.7°C 69% 0.7 mph S1.1 kmh S 3.8 mph6.1 kmh 29.67 in1004.7 mb 0.00 in0.0 mm 0.00 in0.0 mm 0.01 in0.3 mm
04:10 PM 53.6°F12.0°C 43.7°F6.5°C 69% 0.7 mph S1.1 kmh S 3.8 mph6.1 kmh 29.67 in1004.7 mb 0.00 in0.0 mm 0.00 in0.0 mm 0.01 in0.3 mm
04:00 PM 53.8°F12.1°C 44.2°F6.8°C 70% 0.7 mph S1.1 kmh S 3.1 mph5.0 kmh 29.67 in1004.7 mb 0.00 in0.0 mm 0.00 in0.0 mm 0.01 in0.3 mm
03:50 PM 53.6°F12.0°C 43.7°F6.5°C 69% 0.7 mph S1.1 kmh S 4.5 mph7.2 kmh 29.67 in1004.7 mb 0.00 in0.0 mm 0.00 in0.0 mm 0.01 in0.3 mm
03:40 PM 53.8°F12.1°C 43.5°F6.4°C 68% 2.2 mph SSW3.5 kmh SSW 4.5 mph7.2 kmh 29.66 in1004.4 mb 0.00 in0.0 mm 0.00 in0.0 mm 0.01 in0.3 mm
03:30 PM 54.1°F12.3°C 43.8°F6.6°C 68% 2.2 mph SW3.5 kmh SW 6.9 mph11.1 kmh 29.66 in1004.4 mb 0.00 in0.0 mm 0.00 in0.0 mm 0.01 in0.3 mm
03:20 PM 54.7°F12.6°C 43.2°F6.2°C 65% 3.8 mph S6.1 kmh S 7.6 mph12.2 kmh 29.66 in1004.4 mb 0.00 in0.0 mm 0.00 in0.0 mm 0.01 in0.3 mm
03:10 PM 56.8°F13.8°C 44.4°F6.9°C 63% 5.4 mph S8.7 kmh S 8.3 mph13.4 kmh 29.66 in1004.4 mb 0.00 in0.0 mm 0.00 in0.0 mm 0.01 in0.3 mm
03:00 PM 58.1°F14.5°C 45.6°F7.6°C 63% 6.0 mph SSW9.7 kmh SSW 9.2 mph14.8 kmh 29.66 in1004.4 mb 0.00 in0.0 mm 0.00 in0.0 mm 0.01 in0.3 mm
02:50 PM 57.4°F14.1°C 44.9°F7.2°C 63% 3.8 mph SSW6.1 kmh SSW 7.6 mph12.2 kmh 29.65 in1004.1 mb 0.00 in0.0 mm 0.00 in0.0 mm 0.01 in0.3 mm
02:40 PM 56.1°F13.4°C 45.7°F7.6°C 68% 3.8 mph SW6.1 kmh SW 6.0 mph9.7 kmh 29.65 in1004.1 mb 0.00 in0.0 mm 0.00 in0.0 mm 0.01 in0.3 mm
02:30 PM 54.1°F12.3°C 43.8°F6.6°C 68% 3.1 mph SSW5.0 kmh SSW 8.3 mph13.4 kmh 29.65 in1004.1 mb 0.00 in0.0 mm 0.00 in0.0 mm 0.01 in0.3 mm
02:20 PM 53.8°F12.1°C 43.9°F6.6°C 69% 6.9 mph SW11.1 kmh SW 9.2 mph14.8 kmh 29.66 in1004.4 mb 0.00 in0.0 mm 0.00 in0.0 mm 0.01 in0.3 mm
02:10 PM 53.8°F12.1°C 43.9°F6.6°C 69% 6.9 mph SW11.1 kmh SW 12.1 mph19.5 kmh 29.66 in1004.4 mb 0.00 in0.0 mm 0.00 in0.0 mm 0.01 in0.3 mm
02:00 PM 54.0°F12.2°C 44.0°F6.7°C 69% 4.5 mph SSW7.2 kmh SSW 9.2 mph14.8 kmh 29.66 in1004.4 mb 0.00 in0.0 mm 0.00 in0.0 mm 0.01 in0.3 mm
01:50 PM 53.8°F12.1°C 43.9°F6.6°C 69% 3.1 mph SSW5.0 kmh SSW 10.7 mph17.2 kmh 29.66 in1004.4 mb 0.00 in0.0 mm 0.00 in0.0 mm 0.01 in0.3 mm
01:40 PM 54.1°F12.3°C 44.2°F6.8°C 69% 6.0 mph SW9.7 kmh SW 10.7 mph17.2 kmh 29.66 in1004.4 mb 0.00 in0.0 mm 0.00 in0.0 mm 0.01 in0.3 mm
01:30 PM 54.3°F12.4°C 43.6°F6.4°C 67% 7.6 mph SW12.2 kmh SW 10.7 mph17.2 kmh 29.66 in1004.4 mb 0.00 in0.0 mm 0.00 in0.0 mm 0.01 in0.3 mm
01:20 PM 54.1°F12.3°C 43.0°F6.1°C 66% 7.6 mph SW12.2 kmh SW 12.1 mph19.5 kmh 29.65 in1004.1 mb 0.00 in0.0 mm 0.00 in0.0 mm 0.01 in0.3 mm
01:10 PM 54.7°F12.6°C 44.3°F6.8°C 68% 5.4 mph SW8.7 kmh SW 9.8 mph15.8 kmh 29.66 in1004.4 mb 0.00 in0.0 mm 0.00 in0.0 mm 0.01 in0.3 mm
01:00 PM 54.9°F12.7°C 42.9°F6.1°C 64% 6.0 mph SW9.7 kmh SW 11.4 mph18.3 kmh 29.67 in1004.7 mb 0.00 in0.0 mm 0.00 in0.0 mm 0.01 in0.3 mm
12:50 PM 54.3°F12.4°C 42.4°F5.8°C 64% 6.0 mph SW9.7 kmh SW 11.4 mph18.3 kmh 29.66 in1004.4 mb 0.00 in0.0 mm 0.00 in0.0 mm 0.01 in0.3 mm
12:40 PM 54.1°F12.3°C 41.8°F5.4°C 63% 5.4 mph SW8.7 kmh SW 10.7 mph17.2 kmh 29.66 in1004.4 mb 0.00 in0.0 mm 0.00 in0.0 mm 0.01 in0.3 mm
12:30 PM 54.9°F12.7°C 42.1°F5.6°C 62% 6.0 mph SW9.7 kmh SW 11.4 mph18.3 kmh 29.67 in1004.7 mb 0.00 in0.0 mm 0.00 in0.0 mm 0.01 in0.3 mm
12:20 PM 54.9°F12.7°C 42.5°F5.8°C 63% 5.4 mph SW8.7 kmh SW 11.4 mph18.3 kmh 29.66 in1004.4 mb 0.00 in0.0 mm 0.00 in0.0 mm 0.01 in0.3 mm
12:10 PM 55.4°F13.0°C 43.8°F6.6°C 65% 6.0 mph SW9.7 kmh SW 12.1 mph19.5 kmh 29.67 in1004.7 mb 0.00 in0.0 mm 0.00 in0.0 mm 0.01 in0.3 mm
12:00 PM 54.9°F12.7°C 43.7°F6.5°C 66% 7.6 mph SW12.2 kmh SW 9.2 mph14.8 kmh 29.67 in1004.7 mb 0.00 in0.0 mm 0.00 in0.0 mm 0.01 in0.3 mm
11:50 AM 53.2°F11.8°C 43.3°F6.3°C 69% 4.5 mph SW7.2 kmh SW 9.2 mph14.8 kmh 29.68 in1005.1 mb 0.00 in0.0 mm 0.00 in0.0 mm 0.01 in0.3 mm
11:40 AM 54.5°F12.5°C 43.0°F6.1°C 65% 7.6 mph SW12.2 kmh SW 10.7 mph17.2 kmh 29.68 in1005.1 mb 0.00 in0.0 mm 0.00 in0.0 mm 0.01 in0.3 mm
11:30 AM 54.5°F12.5°C 43.4°F6.3°C 66% 6.9 mph SW11.1 kmh SW 11.4 mph18.3 kmh 29.68 in1005.1 mb 0.00 in0.0 mm 0.00 in0.0 mm 0.01 in0.3 mm
11:20 AM 53.2°F11.8°C 42.6°F5.9°C 67% 6.9 mph SW11.1 kmh SW 13.0 mph20.9 kmh 29.68 in1005.1 mb 0.00 in0.0 mm 0.00 in0.0 mm 0.01 in0.3 mm
11:10 AM 53.6°F12.0°C 42.5°F5.8°C 66% 3.8 mph SW6.1 kmh SW 10.7 mph17.2 kmh 29.68 in1005.1 mb 0.00 in0.0 mm 0.00 in0.0 mm 0.01 in0.3 mm
11:00 AM 53.8°F12.1°C 42.3°F5.7°C 65% 3.8 mph WSW6.1 kmh WSW 13.0 mph20.9 kmh 29.68 in1005.1 mb 0.00 in0.0 mm 0.00 in0.0 mm 0.01 in0.3 mm
10:50 AM 55.4°F13.0°C 43.0°F6.1°C 63% 6.0 mph W9.7 kmh W 9.8 mph15.8 kmh 29.68 in1005.1 mb 0.00 in0.0 mm 0.00 in0.0 mm 0.01 in0.3 mm
10:40 AM 55.6°F13.1°C 42.8°F6.0°C 62% 4.5 mph WSW7.2 kmh WSW 9.2 mph14.8 kmh 29.67 in1004.7 mb 0.00 in0.0 mm 0.00 in0.0 mm 0.01 in0.3 mm
10:30 AM 54.7°F12.6°C 42.3°F5.7°C 63% 3.1 mph WNW5.0 kmh WNW 8.3 mph13.4 kmh 29.66 in1004.4 mb 0.00 in0.0 mm 0.00 in0.0 mm 0.01 in0.3 mm
10:20 AM 55.6°F13.1°C 42.4°F5.8°C 61% 2.2 mph W3.5 kmh W 6.9 mph11.1 kmh 29.67 in1004.7 mb 0.00 in0.0 mm 0.00 in0.0 mm 0.01 in0.3 mm
10:10 AM 55.0°F12.8°C 42.3°F5.7°C 62% 3.1 mph WSW5.0 kmh WSW 9.8 mph15.8 kmh 29.66 in1004.4 mb 0.00 in0.0 mm 0.00 in0.0 mm 0.01 in0.3 mm
10:00 AM 55.4°F13.0°C 43.4°F6.3°C 64% 6.0 mph W9.7 kmh W 6.9 mph11.1 kmh 29.66 in1004.4 mb 0.00 in0.0 mm 0.00 in0.0 mm 0.01 in0.3 mm
09:50 AM 54.1°F12.3°C 42.2°F5.7°C 64% 2.2 mph WNW3.5 kmh WNW 6.0 mph9.7 kmh 29.66 in1004.4 mb 0.00 in0.0 mm 0.00 in0.0 mm 0.01 in0.3 mm
09:40 AM 53.8°F12.1°C 42.3°F5.7°C 65% 0.7 mph W1.1 kmh W 7.6 mph12.2 kmh 29.66 in1004.4 mb 0.00 in0.0 mm 0.00 in0.0 mm 0.01 in0.3 mm
09:30 AM 53.6°F12.0°C 43.7°F6.5°C 69% 4.5 mph NW7.2 kmh NW 6.9 mph11.1 kmh 29.67 in1004.7 mb 0.00 in0.0 mm 0.00 in0.0 mm 0.01 in0.3 mm
09:20 AM 52.7°F11.5°C 43.9°F6.6°C 72% 1.6 mph WNW2.6 kmh WNW 8.3 mph13.4 kmh 29.66 in1004.4 mb 0.00 in0.0 mm 0.00 in0.0 mm 0.01 in0.3 mm
09:10 AM 52.0°F11.1°C 43.2°F6.2°C 72% 3.8 mph WNW6.1 kmh WNW 7.6 mph12.2 kmh 29.66 in1004.4 mb 0.00 in0.0 mm 0.00 in0.0 mm 0.01 in0.3 mm
09:00 AM 52.2°F11.2°C 43.8°F6.6°C 73% 3.1 mph NW5.0 kmh NW 6.9 mph11.1 kmh 29.66 in1004.4 mb 0.00 in0.0 mm 0.00 in0.0 mm 0.01 in0.3 mm
08:50 AM 51.4°F10.8°C 43.8°F6.6°C 75% 3.8 mph NW6.1 kmh NW 6.0 mph9.7 kmh 29.66 in1004.4 mb 0.00 in0.0 mm 0.00 in0.0 mm 0.01 in0.3 mm
08:40 AM 50.5°F10.3°C 44.3°F6.8°C 79% 3.1 mph NW5.0 kmh NW 6.0 mph9.7 kmh 29.66 in1004.4 mb 0.00 in0.0 mm 0.00 in0.0 mm 0.01 in0.3 mm
08:30 AM 48.9°F9.4°C 44.3°F6.8°C 84% 2.2 mph NW3.5 kmh NW 3.8 mph6.1 kmh 29.66 in1004.4 mb 0.00 in0.0 mm 0.00 in0.0 mm 0.01 in0.3 mm
08:20 AM 47.3°F8.5°C 43.3°F6.3°C 86% 2.2 mph NW3.5 kmh NW 3.1 mph5.0 kmh 29.65 in1004.1 mb 0.00 in0.0 mm 0.00 in0.0 mm 0.01 in0.3 mm
08:10 AM 46.9°F8.3°C 43.0°F6.1°C 86% 0.7 mph NW1.1 kmh NW 3.8 mph6.1 kmh 29.65 in1004.1 mb 0.00 in0.0 mm 0.00 in0.0 mm 0.01 in0.3 mm
08:00 AM 46.8°F8.2°C 42.8°F6.0°C 86% 1.6 mph NW2.6 kmh NW 7.6 mph12.2 kmh 29.65 in1004.1 mb 0.00 in0.0 mm 0.00 in0.0 mm 0.01 in0.3 mm
07:50 AM 46.6°F8.1°C 42.6°F5.9°C 86% 0.7 mph NNW1.1 kmh NNW 2.2 mph3.5 kmh 29.64 in1003.7 mb 0.00 in0.0 mm 0.00 in0.0 mm 0.01 in0.3 mm
07:40 AM 46.6°F8.1°C 42.3°F5.7°C 85% 1.6 mph NNW2.6 kmh NNW 3.8 mph6.1 kmh 29.64 in1003.7 mb 0.00 in0.0 mm 0.00 in0.0 mm 0.01 in0.3 mm
07:30 AM 46.9°F8.3°C 41.7°F5.4°C 82% 1.6 mph N2.6 kmh N 3.1 mph5.0 kmh 29.63 in1003.4 mb 0.00 in0.0 mm 0.00 in0.0 mm 0.01 in0.3 mm
07:20 AM 47.7°F8.7°C 41.8°F5.4°C 80% 1.6 mph NW2.6 kmh NW 4.5 mph7.2 kmh 29.63 in1003.4 mb 0.00 in0.0 mm 0.00 in0.0 mm 0.01 in0.3 mm
07:10 AM 48.4°F9.1°C 42.2°F5.7°C 79% 1.6 mph WNW2.6 kmh WNW 8.3 mph13.4 kmh 29.63 in1003.4 mb 0.00 in0.0 mm 0.00 in0.0 mm 0.01 in0.3 mm
07:00 AM 48.6°F9.2°C 42.7°F5.9°C 80% 2.2 mph W3.5 kmh W 6.9 mph11.1 kmh 29.63 in1003.4 mb 0.00 in0.0 mm 0.00 in0.0 mm 0.01 in0.3 mm
06:50 AM 48.7°F9.3°C 42.9°F6.1°C 80% 3.8 mph W6.1 kmh W 6.0 mph9.7 kmh 29.62 in1003.0 mb 0.00 in0.0 mm 0.00 in0.0 mm 0.01 in0.3 mm
06:40 AM 49.1°F9.5°C 43.5°F6.4°C 81% 3.8 mph W6.1 kmh W 8.3 mph13.4 kmh 29.62 in1003.0 mb 0.00 in0.0 mm 0.00 in0.0 mm 0.01 in0.3 mm
06:30 AM 49.3°F9.6°C 43.7°F6.5°C 81% 6.9 mph WSW11.1 kmh WSW 8.3 mph13.4 kmh 29.61 in1002.7 mb 0.00 in0.0 mm 0.00 in0.0 mm 0.01 in0.3 mm
06:20 AM 49.5°F9.7°C 43.9°F6.6°C 81% 2.2 mph WSW3.5 kmh WSW 10.7 mph17.2 kmh 29.60 in1002.4 mb 0.00 in0.0 mm 0.00 in0.0 mm 0.01 in0.3 mm
06:10 AM 49.5°F9.7°C 43.6°F6.4°C 80% 7.6 mph WSW12.2 kmh WSW 11.4 mph18.3 kmh 29.59 in1002.0 mb 0.00 in0.0 mm 0.00 in0.0 mm 0.01 in0.3 mm
06:00 AM 49.5°F9.7°C 43.9°F6.6°C 81% 6.0 mph WSW9.7 kmh WSW 13.6 mph21.9 kmh 29.59 in1002.0 mb 0.00 in0.0 mm 0.00 in0.0 mm 0.01 in0.3 mm
05:50 AM 49.5°F9.7°C 43.9°F6.6°C 81% 3.8 mph WSW6.1 kmh WSW 12.1 mph19.5 kmh 29.58 in1001.7 mb 0.00 in0.0 mm 0.00 in0.0 mm 0.01 in0.3 mm
05:40 AM 49.5°F9.7°C 43.6°F6.4°C 80% 5.4 mph SW8.7 kmh SW 13.6 mph21.9 kmh 29.57 in1001.4 mb 0.00 in0.0 mm 0.00 in0.0 mm 0.01 in0.3 mm
05:30 AM 49.8°F9.9°C 43.9°F6.6°C 80% 6.9 mph WSW11.1 kmh WSW 14.5 mph23.3 kmh 29.58 in1001.7 mb 0.00 in0.0 mm 0.00 in0.0 mm 0.01 in0.3 mm
05:20 AM 50.0°F10.0°C 44.1°F6.7°C 80% 9.2 mph SW14.8 kmh SW 17.4 mph28.0 kmh 29.57 in1001.4 mb 0.00 in0.0 mm 0.00 in0.0 mm 0.01 in0.3 mm
05:10 AM 50.0°F10.0°C 44.1°F6.7°C 80% 11.4 mph SW18.3 kmh SW 17.4 mph28.0 kmh 29.57 in1001.4 mb 0.00 in0.0 mm 0.00 in0.0 mm 0.01 in0.3 mm
05:00 AM 50.0°F10.0°C 44.1°F6.7°C 80% 6.0 mph WSW9.7 kmh WSW 16.8 mph27.0 kmh 29.57 in1001.4 mb 0.00 in0.0 mm 0.00 in0.0 mm 0.01 in0.3 mm
04:50 AM 50.0°F10.0°C 43.4°F6.3°C 78% 12.1 mph WSW19.5 kmh WSW 17.4 mph28.0 kmh 29.57 in1001.4 mb 0.00 in0.0 mm 0.00 in0.0 mm 0.01 in0.3 mm
04:40 AM 50.4°F10.2°C 44.1°F6.7°C 79% 6.9 mph SW11.1 kmh SW 21.3 mph34.3 kmh 29.56 in1001.0 mb 0.00 in0.0 mm 0.00 in0.0 mm 0.01 in0.3 mm
04:30 AM 50.4°F10.2°C 43.8°F6.6°C 78% 12.1 mph SW19.5 kmh SW 18.3 mph29.5 kmh 29.55 in1000.7 mb 0.00 in0.0 mm 0.00 in0.0 mm 0.01 in0.3 mm
04:20 AM 50.5°F10.3°C 44.3°F6.8°C 79% 8.3 mph SW13.4 kmh SW 20.6 mph33.2 kmh 29.55 in1000.7 mb 0.01 in0.3 mm 0.00 in0.0 mm 0.01 in0.3 mm
04:10 AM 50.5°F10.3°C 44.6°F7.0°C 80% 13.0 mph SW20.9 kmh SW 19.0 mph30.6 kmh 29.55 in1000.7 mb 0.01 in0.3 mm 0.00 in0.0 mm 0.01 in0.3 mm
04:00 AM 50.5°F10.3°C 44.3°F6.8°C 79% 12.1 mph SW19.5 kmh SW 21.3 mph34.3 kmh 29.54 in1000.3 mb 0.01 in0.3 mm 0.00 in0.0 mm 0.01 in0.3 mm
03:50 AM 50.7°F10.4°C 44.8°F7.1°C 80% 11.4 mph SW18.3 kmh SW 21.3 mph34.3 kmh 29.54 in1000.3 mb 0.01 in0.3 mm 0.00 in0.0 mm 0.01 in0.3 mm
03:40 AM 50.9°F10.5°C 45.0°F7.2°C 80% 6.0 mph SW9.7 kmh SW 22.8 mph36.7 kmh 29.53 in1000.0 mb 0.01 in0.3 mm 0.00 in0.0 mm 0.01 in0.3 mm
03:30 AM 50.9°F10.5°C 45.0°F7.2°C 80% 10.7 mph SW17.2 kmh SW 21.3 mph34.3 kmh 29.53 in1000.0 mb 0.01 in0.3 mm 0.06 in1.5 mm 0.01 in0.3 mm
03:20 AM 51.1°F10.6°C 45.8°F7.7°C 82% 12.1 mph SW19.5 kmh SW 18.3 mph29.5 kmh 29.52 in999.7 mb 0.00 in0.0 mm 0.00 in0.0 mm 0.00 in0.0 mm
03:10 AM 51.3°F10.7°C 46.3°F7.9°C 83% 7.6 mph WSW12.2 kmh WSW 19.0 mph30.6 kmh 29.52 in999.7 mb 0.00 in0.0 mm 0.00 in0.0 mm 0.00 in0.0 mm
03:00 AM 51.1°F10.6°C 46.1°F7.8°C 83% 10.7 mph SW17.2 kmh SW 19.7 mph31.7 kmh 29.52 in999.7 mb 0.00 in0.0 mm 0.00 in0.0 mm 0.00 in0.0 mm
02:50 AM 51.1°F10.6°C 46.1°F7.8°C 83% 9.8 mph WSW15.8 kmh WSW 21.3 mph34.3 kmh 29.52 in999.7 mb 0.00 in0.0 mm 0.00 in0.0 mm 0.00 in0.0 mm
02:40 AM 51.1°F10.6°C 46.1°F7.8°C 83% 6.9 mph SW11.1 kmh SW 15.9 mph25.6 kmh 29.52 in999.7 mb 0.00 in0.0 mm 0.00 in0.0 mm 0.00 in0.0 mm
02:30 AM 51.3°F10.7°C 46.3°F7.9°C 83% 7.6 mph SW12.2 kmh SW 19.7 mph31.7 kmh 29.51 in999.3 mb 0.00 in0.0 mm 0.00 in0.0 mm 0.00 in0.0 mm
02:20 AM 51.3°F10.7°C 46.3°F7.9°C 83% 11.4 mph SW18.3 kmh SW 22.8 mph36.7 kmh 29.51 in999.3 mb 0.00 in0.0 mm 0.00 in0.0 mm 0.00 in0.0 mm
02:10 AM 51.3°F10.7°C 46.3°F7.9°C 83% 11.4 mph SW18.3 kmh SW 22.1 mph35.6 kmh 29.50 in999.0 mb 0.00 in0.0 mm 0.00 in0.0 mm 0.00 in0.0 mm
02:00 AM 51.4°F10.8°C 46.5°F8.1°C 83% 16.8 mph SW27.0 kmh SW 25.1 mph40.4 kmh 29.50 in999.0 mb 0.00 in0.0 mm 0.00 in0.0 mm 0.00 in0.0 mm
01:50 AM 51.3°F10.7°C 46.6°F8.1°C 84% 13.0 mph SW20.9 kmh SW 20.6 mph33.2 kmh 29.50 in999.0 mb 0.00 in0.0 mm 0.00 in0.0 mm 0.00 in0.0 mm
01:40 AM 51.3°F10.7°C 46.3°F7.9°C 83% 10.7 mph SW17.2 kmh SW 22.1 mph35.6 kmh 29.50 in999.0 mb 0.00 in0.0 mm 0.00 in0.0 mm 0.00 in0.0 mm
01:30 AM 51.4°F10.8°C 46.8°F8.2°C 84% 15.9 mph WSW25.6 kmh WSW 22.1 mph35.6 kmh 29.50 in999.0 mb 0.00 in0.0 mm 0.00 in0.0 mm 0.00 in0.0 mm
01:20 AM 51.4°F10.8°C 46.8°F8.2°C 84% 8.3 mph SW13.4 kmh SW 18.3 mph29.5 kmh 29.49 in998.6 mb 0.00 in0.0 mm 0.00 in0.0 mm 0.00 in0.0 mm
01:10 AM 51.6°F10.9°C 46.9°F8.3°C 84% 12.1 mph WSW19.5 kmh WSW 24.4 mph39.3 kmh 29.49 in998.6 mb 0.00 in0.0 mm 0.00 in0.0 mm 0.00 in0.0 mm
01:00 AM 51.6°F10.9°C 46.9°F8.3°C 84% 11.4 mph SW18.3 kmh SW 22.8 mph36.7 kmh 29.48 in998.3 mb 0.00 in0.0 mm 0.00 in0.0 mm 0.00 in0.0 mm
12:50 AM 51.6°F10.9°C 46.9°F8.3°C 84% 18.3 mph SW29.5 kmh SW 21.3 mph34.3 kmh 29.47 in998.0 mb 0.00 in0.0 mm 0.00 in0.0 mm 0.00 in0.0 mm
12:40 AM 51.6°F10.9°C 46.9°F8.3°C 84% 11.4 mph SW18.3 kmh SW 23.5 mph37.8 kmh 29.46 in997.6 mb 0.00 in0.0 mm 0.00 in0.0 mm 0.00 in0.0 mm
12:30 AM 52.0°F11.1°C 47.3°F8.5°C 84% 10.7 mph SW17.2 kmh SW 22.8 mph36.7 kmh 29.46 in997.6 mb 0.00 in0.0 mm 0.00 in0.0 mm 0.00 in0.0 mm
12:20 AM 52.0°F11.1°C 47.3°F8.5°C 84% 12.1 mph WSW19.5 kmh WSW 24.4 mph39.3 kmh 29.46 in997.6 mb 0.00 in0.0 mm 0.00 in0.0 mm 0.00 in0.0 mm
12:10 AM 52.0°F11.1°C 47.3°F8.5°C 84% 13.0 mph WSW20.9 kmh WSW 24.4 mph39.3 kmh 29.45 in997.3 mb 0.00 in0.0 mm 0.00 in0.0 mm 0.00 in0.0 mm
12:00 AM 52.0°F11.1°C 47.3°F8.5°C 84% 8.3 mph WSW13.4 kmh WSW 25.9 mph41.7 kmh 29.45 in997.3 mb 0.00 in0.0 mm 0.00 in0.0 mm 0.00 in0.0 mm